Minerva — CSXI4 — position and weather

sailwx.info

Track history (hours):
 
Tides and Currents Weather Stations Pressure Air Temp Water Temp Dewpoint Dewpoint Depression Visibility Wind Speed Wind Dir Waves Ship Positions

Minerva

Last reported at 2015-Aug-04 11:33 UTC. Time now 2015-Aug-04 11:44 UTC.
Position N 37°56' W 008°51'.

Length 11 m; draft 1.5 m.

Type: Pilot. MMSI: 263700025.

Date/timePositionNaut miles runAvg speedWind from/ knotsBaromVisibWave heightAir tempDewpointWater temp
2015-Aug-04 11:33N 37°56' W 008°51'0 0.0
2015-Aug-04 06:16N 37°56' W 008°51'0 0.1
2015-Aug-04 01:33N 37°56' W 008°51'0 0.0
2015-Aug-03 07:31N 37°56' W 008°51'0 0.0
2015-Aug-03 06:07N 37°56' W 008°51'0 0.1
2015-Aug-03 03:33N 37°56' W 008°51'0 0.1
2015-Aug-02 22:22N 37°56' W 008°51'0 0.1
2015-Aug-02 19:32N 37°56' W 008°51'1 0.3
2015-Aug-02 17:33N 37°56' W 008°51'2 1.7
2015-Aug-02 16:33N 37°56' W 008°53'1 0.7
2015-Aug-02 14:33N 37°56' W 008°51'0 0.4
2015-Aug-02 13:33N 37°56' W 008°50'1 0.0
2015-Aug-01 15:28N 37°56' W 008°51'0 0.0
2015-Aug-01 14:32N 37°56' W 008°51'0 0.2
2015-Aug-01 13:33N 37°56' W 008°51'0 0.2
2015-Aug-01 11:32N 37°56' W 008°51'1 0.0
2015-Jul-31 19:09N 37°56' W 008°51'0 0.8
2015-Jul-31 18:33N 37°56' W 008°52'3 0.6
2015-Jul-31 14:33N 37°54' W 008°51'3 0.6
2015-Jul-31 08:33N 37°57' W 008°52'1 1.4
2015-Jul-31 07:33N 37°56' W 008°51'0 0.1
2015-Jul-30 23:33N 37°56' W 008°51'0 0.2
2015-Jul-30 21:27N 37°56' W 008°51'0 0.0
2015-Jul-30 20:33N 37°56' W 008°51'1 0.2
2015-Jul-30 15:33N 37°55' W 008°51'1 0.7
2015-Jul-30 14:33N 37°56' W 008°51'1 1.3
2015-Jul-30 13:33N 37°57' W 008°52'0 0.0
2015-Jul-30 12:12N 37°57' W 008°52'2 0.2
2015-Jul-30 02:33N 37°55' W 008°51'0 0.5
2015-Jul-30 01:33N 37°56' W 008°51'0 0.0
2015-Jul-28 23:33N 37°56' W 008°51'0 0.0
2015-Jul-28 05:33N 37°56' W 008°51'0 0.0
2015-Jul-27 16:12N 37°56' W 008°51'1 1.0
2015-Jul-27 15:33N 37°56' W 008°50'1 0.2
2015-Jul-27 12:22N 37°56' W 008°51'0 0.3
2015-Jul-27 11:33N 37°56' W 008°51'0 0.0
2015-Jul-26 11:33N 37°56' W 008°51'  
Track history (hours):
 
Tides and Currents Weather Stations Pressure Air Temp Water Temp Dewpoint Dewpoint Depression Visibility Wind Speed Wind Dir Waves Ship Positions

Minerva

Last reported at 2015-Aug-04 11:33 UTC. Time now 2015-Aug-04 11:44 UTC.
Position N 37°56' W 008°51'.

Length 11 m; draft 1.5 m.

Type: Pilot. MMSI: 263700025.

Date/timePositionNaut miles runAvg speedWind from/ knotsBaromVisibWave heightAir tempDewpointWater temp
2015-Aug-04 11:33N 37°56' W 008°51'0 0.0
2015-Aug-04 06:16N 37°56' W 008°51'0 0.1
2015-Aug-04 01:33N 37°56' W 008°51'0 0.0
2015-Aug-03 07:31N 37°56' W 008°51'0 0.0
2015-Aug-03 06:07N 37°56' W 008°51'0 0.1
2015-Aug-03 03:33N 37°56' W 008°51'0 0.1
2015-Aug-02 22:22N 37°56' W 008°51'0 0.1
2015-Aug-02 19:32N 37°56' W 008°51'1 0.3
2015-Aug-02 17:33N 37°56' W 008°51'2 1.7
2015-Aug-02 16:33N 37°56' W 008°53'1 0.7
2015-Aug-02 14:33N 37°56' W 008°51'0 0.4
2015-Aug-02 13:33N 37°56' W 008°50'1 0.0
2015-Aug-01 15:28N 37°56' W 008°51'0 0.0
2015-Aug-01 14:32N 37°56' W 008°51'0 0.2
2015-Aug-01 13:33N 37°56' W 008°51'0 0.2
2015-Aug-01 11:32N 37°56' W 008°51'1 0.0
2015-Jul-31 19:09N 37°56' W 008°51'0 0.8
2015-Jul-31 18:33N 37°56' W 008°52'3 0.6
2015-Jul-31 14:33N 37°54' W 008°51'3 0.6
2015-Jul-31 08:33N 37°57' W 008°52'1 1.4
2015-Jul-31 07:33N 37°56' W 008°51'0 0.1
2015-Jul-30 23:33N 37°56' W 008°51'0 0.2
2015-Jul-30 21:27N 37°56' W 008°51'0 0.0
2015-Jul-30 20:33N 37°56' W 008°51'1 0.2
2015-Jul-30 15:33N 37°55' W 008°51'1 0.7
2015-Jul-30 14:33N 37°56' W 008°51'1 1.3
2015-Jul-30 13:33N 37°57' W 008°52'0 0.0
2015-Jul-30 12:12N 37°57' W 008°52'2 0.2
2015-Jul-30 02:33N 37°55' W 008°51'0 0.5
2015-Jul-30 01:33N 37°56' W 008°51'0 0.0
2015-Jul-28 23:33N 37°56' W 008°51'0 0.0
2015-Jul-28 05:33N 37°56' W 008°51'0 0.0
2015-Jul-27 16:12N 37°56' W 008°51'1 1.0
2015-Jul-27 15:33N 37°56' W 008°50'1 0.2
2015-Jul-27 12:22N 37°56' W 008°51'0 0.3
2015-Jul-27 11:33N 37°56' W 008°51'0 0.0
2015-Jul-26 11:33N 37°56' W 008°51'  

Dump ship's entire track history